createdAt,value
2017-02-26T00:00:22.226Z,942.4
2017-02-26T00:01:30.286Z,942.4
2017-02-26T00:02:38.244Z,942.4
2017-02-26T00:03:46.336Z,942.3
2017-02-26T00:04:54.436Z,942.3
2017-02-26T00:06:02.524Z,942.3
2017-02-26T00:07:10.678Z,942.3
2017-02-26T00:08:18.714Z,942.3
2017-02-26T00:09:26.806Z,942.3
2017-02-26T00:10:34.893Z,942.2
2017-02-26T00:11:42.990Z,942.2
2017-02-26T00:12:51.200Z,942.2
2017-02-26T00:13:59.166Z,942.2
2017-02-26T00:15:07.293Z,942.2
2017-02-26T00:16:15.345Z,942.1
2017-02-26T00:17:23.429Z,942.1
2017-02-26T00:18:31.642Z,942.1
2017-02-26T00:19:39.734Z,942.2
2017-02-26T00:20:47.709Z,942.2
2017-02-26T00:21:55.804Z,942.2
2017-02-26T00:23:03.944Z,942.2
2017-02-26T00:24:12.303Z,942.2
2017-02-26T00:25:20.074Z,942.2
2017-02-26T00:26:28.170Z,942.2
2017-02-26T00:27:36.259Z,942.2
2017-02-26T00:28:44.356Z,942.2
2017-02-26T00:29:52.569Z,942.2
2017-02-26T00:31:00.548Z,942.2
2017-02-26T00:32:08.636Z,942.2
2017-02-26T00:33:16.724Z,942.3
2017-02-26T00:34:24.812Z,942.2
2017-02-26T00:35:32.967Z,942.3
2017-02-26T00:36:41.002Z,942.3
2017-02-26T00:37:49.094Z,942.3
2017-02-26T00:38:57.301Z,942.3
2017-02-26T00:40:05.282Z,942.3
2017-02-26T00:41:13.425Z,942.4
2017-02-26T00:42:21.462Z,942.4
2017-02-26T00:43:29.559Z,942.4
2017-02-26T00:44:37.679Z,942.4
2017-02-26T00:45:45.733Z,942.4
2017-02-26T00:46:53.943Z,942.3
2017-02-26T00:48:01.917Z,942.4
2017-02-26T00:49:10.183Z,942.4
2017-02-26T00:50:18.097Z,942.4
2017-02-26T00:51:26.188Z,942.3
2017-02-26T00:52:34.401Z,942.3
2017-02-26T00:53:42.369Z,942.3
2017-02-26T00:54:50.520Z,942.3
2017-02-26T00:55:58.558Z,942.2
2017-02-26T00:57:06.651Z,942.2
2017-02-26T00:58:14.860Z,942.2
2017-02-26T00:59:22.989Z,942.2
2017-02-26T01:00:30.973Z,942.1
2017-02-26T01:01:39.016Z,942.1
2017-02-26T01:02:47.104Z,942.1
2017-02-26T01:03:55.445Z,942.0
2017-02-26T01:05:03.281Z,942.0
2017-02-26T01:06:11.374Z,942.0
2017-02-26T01:07:19.467Z,942.0
2017-02-26T01:08:27.559Z,942.0
2017-02-26T01:09:35.768Z,942.0
2017-02-26T01:10:43.869Z,942.0
2017-02-26T01:11:51.835Z,942.0
2017-02-26T01:12:59.930Z,942.0
2017-02-26T01:14:08.012Z,942.0
2017-02-26T01:15:16.225Z,942.0
2017-02-26T01:16:24.202Z,942.0
2017-02-26T01:17:32.289Z,942.0
2017-02-26T01:18:40.383Z,942.0
2017-02-26T01:19:48.467Z,942.0
2017-02-26T01:20:56.699Z,942.1
2017-02-26T01:22:04.643Z,942.1
2017-02-26T01:23:12.738Z,942.1
2017-02-26T01:24:20.829Z,942.0
2017-02-26T01:25:28.925Z,942.1
2017-02-26T01:26:37.200Z,942.1
2017-02-26T01:27:45.114Z,942.0
2017-02-26T01:28:53.206Z,942.0
2017-02-26T01:30:01.299Z,942.1
2017-02-26T01:31:09.394Z,942.0
2017-02-26T01:32:17.538Z,942.0
2017-02-26T01:33:25.568Z,942.0
2017-02-26T01:34:33.663Z,942.0
2017-02-26T01:35:41.757Z,942.0
2017-02-26T01:36:49.853Z,942.0
2017-02-26T01:37:58.071Z,942.0
2017-02-26T01:39:06.038Z,942.0
2017-02-26T01:40:14.133Z,942.0
2017-02-26T01:41:22.318Z,942.0
2017-02-26T01:42:30.438Z,942.0
2017-02-26T01:43:38.535Z,942.0
2017-02-26T01:44:46.501Z,942.0
2017-02-26T01:45:54.784Z,941.9
2017-02-26T01:47:02.855Z,941.9
2017-02-26T01:48:10.780Z,941.9
2017-02-26T01:49:18.922Z,941.9
2017-02-26T01:50:26.957Z,942.0
2017-02-26T01:51:35.045Z,941.9
2017-02-26T01:52:43.134Z,942.0
2017-02-26T01:53:51.222Z,941.9
2017-02-26T01:54:59.439Z,942.0
2017-02-26T01:56:07.405Z,942.0
2017-02-26T01:57:15.583Z,942.0
2017-02-26T01:58:23.644Z,942.0
2017-02-26T01:59:31.678Z,942.0
2017-02-26T02:00:39.823Z,941.9
2017-02-26T02:01:47.854Z,942.0
2017-02-26T02:02:55.952Z,942.0
2017-02-26T02:04:04.036Z,942.0
2017-02-26T02:05:12.128Z,942.0
2017-02-26T02:06:20.339Z,942.0
2017-02-26T02:07:28.324Z,942.0
2017-02-26T02:08:36.406Z,942.0
2017-02-26T02:09:44.493Z,941.9
2017-02-26T02:10:52.575Z,941.8
2017-02-26T02:12:00.735Z,941.9
2017-02-26T02:13:08.910Z,941.9
2017-02-26T02:14:16.980Z,941.9
2017-02-26T02:15:24.953Z,941.9
2017-02-26T02:16:33.037Z,942.0
2017-02-26T02:17:41.188Z,942.0
2017-02-26T02:18:49.224Z,942.0
2017-02-26T02:19:57.317Z,941.9
2017-02-26T02:21:05.407Z,941.9
2017-02-26T02:22:13.498Z,941.9
2017-02-26T02:23:21.731Z,942.0
2017-02-26T02:24:29.683Z,941.9
2017-02-26T02:25:37.758Z,941.9
2017-02-26T02:26:45.849Z,942.0
2017-02-26T02:27:53.937Z,942.0
2017-02-26T02:29:02.142Z,942.0
2017-02-26T02:30:10.170Z,941.9
2017-02-26T02:31:18.200Z,941.9
2017-02-26T02:32:26.293Z,941.9
2017-02-26T02:33:34.389Z,941.9
2017-02-26T02:34:42.597Z,942.0
2017-02-26T02:35:50.574Z,942.0
2017-02-26T02:36:58.666Z,941.9
2017-02-26T02:38:06.753Z,941.9
2017-02-26T02:39:14.934Z,941.9
2017-02-26T02:40:22.990Z,941.9
2017-02-26T02:41:31.027Z,941.8
2017-02-26T02:42:39.121Z,941.9
2017-02-26T02:43:47.207Z,941.9
2017-02-26T02:44:55.335Z,941.9
2017-02-26T02:46:03.449Z,941.9
2017-02-26T02:47:11.479Z,941.8
2017-02-26T02:48:19.572Z,941.8
2017-02-26T02:49:27.800Z,941.9
2017-02-26T02:50:35.864Z,941.9
2017-02-26T02:51:43.970Z,941.8
2017-02-26T02:52:51.944Z,941.8
2017-02-26T02:54:00.042Z,941.8
2017-02-26T02:55:08.316Z,941.8
2017-02-26T02:56:16.210Z,941.8
2017-02-26T02:57:24.357Z,941.8
2017-02-26T02:58:32.403Z,941.8
2017-02-26T02:59:40.487Z,941.8
2017-02-26T03:00:48.575Z,941.8
2017-02-26T03:01:56.721Z,941.8
2017-02-26T03:03:04.871Z,941.9
2017-02-26T03:04:12.835Z,941.8
2017-02-26T03:05:20.940Z,941.8
2017-02-26T03:06:29.017Z,941.8
2017-02-26T03:07:37.105Z,941.8
2017-02-26T03:08:45.254Z,941.8
2017-02-26T03:09:53.286Z,941.8
2017-02-26T03:11:01.376Z,941.7
2017-02-26T03:12:09.466Z,941.7
2017-02-26T03:13:17.560Z,941.6
2017-02-26T03:14:25.707Z,941.7
2017-02-26T03:15:33.827Z,941.7
2017-02-26T03:16:41.830Z,941.7
2017-02-26T03:17:50.040Z,941.6
2017-02-26T03:18:58.012Z,941.6
2017-02-26T03:20:06.149Z,941.6
2017-02-26T03:21:14.263Z,941.6
2017-02-26T03:22:22.268Z,941.6
2017-02-26T03:23:30.359Z,941.6
2017-02-26T03:24:38.449Z,941.6
2017-02-26T03:25:46.855Z,941.7
2017-02-26T03:26:54.636Z,941.7
2017-02-26T03:28:02.719Z,941.7
2017-02-26T03:29:10.812Z,941.7
2017-02-26T03:30:18.897Z,941.7
2017-02-26T03:31:27.040Z,941.7
2017-02-26T03:32:35.147Z,941.7
2017-02-26T03:33:43.222Z,941.7
2017-02-26T03:34:51.268Z,941.7
2017-02-26T03:35:59.356Z,941.6
2017-02-26T03:37:07.572Z,941.6
2017-02-26T03:38:15.539Z,941.6
2017-02-26T03:39:23.628Z,941.6
2017-02-26T03:40:31.721Z,941.6
2017-02-26T03:41:39.812Z,941.6
2017-02-26T03:42:47.958Z,941.6
2017-02-26T03:43:55.992Z,941.6
2017-02-26T03:45:04.086Z,941.6
2017-02-26T03:46:12.177Z,941.6
2017-02-26T03:47:20.427Z,941.6
2017-02-26T03:48:28.473Z,941.6
2017-02-26T03:49:36.495Z,941.6
2017-02-26T03:50:44.535Z,941.6
2017-02-26T03:51:52.617Z,941.6
2017-02-26T03:53:00.711Z,941.6
2017-02-26T03:54:08.856Z,941.7
2017-02-26T03:55:16.885Z,941.6
2017-02-26T03:56:24.982Z,941.6
2017-02-26T03:57:33.191Z,941.7
2017-02-26T03:58:41.264Z,941.7
2017-02-26T03:59:49.295Z,941.7
2017-02-26T04:00:57.336Z,941.7
2017-02-26T04:02:05.429Z,941.7
2017-02-26T04:03:13.513Z,941.7
2017-02-26T04:04:21.608Z,941.8
2017-02-26T04:05:29.822Z,941.7
2017-02-26T04:06:37.786Z,941.7
2017-02-26T04:07:45.893Z,941.7
2017-02-26T04:08:53.969Z,941.7
2017-02-26T04:10:02.056Z,941.8
2017-02-26T04:11:10.195Z,941.8
2017-02-26T04:12:18.229Z,941.7
2017-02-26T04:13:26.316Z,941.7
2017-02-26T04:14:34.404Z,941.8
2017-02-26T04:15:42.490Z,941.7
2017-02-26T04:16:50.702Z,941.8
2017-02-26T04:17:58.666Z,941.8
2017-02-26T04:19:06.789Z,941.8
2017-02-26T04:20:14.841Z,941.8
2017-02-26T04:21:22.986Z,941.8
2017-02-26T04:22:31.137Z,941.8
2017-02-26T04:23:39.109Z,941.8
2017-02-26T04:24:47.287Z,941.8
2017-02-26T04:25:55.283Z,941.8
2017-02-26T04:27:03.369Z,941.8
2017-02-26T04:28:11.582Z,941.8
2017-02-26T04:29:19.545Z,941.8
2017-02-26T04:30:27.629Z,941.8
2017-02-26T04:31:35.722Z,941.8
2017-02-26T04:32:43.806Z,941.8
2017-02-26T04:33:51.952Z,941.8
2017-02-26T04:34:59.992Z,941.8
2017-02-26T04:36:08.078Z,941.8
2017-02-26T04:37:16.228Z,941.8
2017-02-26T04:38:24.258Z,941.8
2017-02-26T04:39:32.492Z,941.8
2017-02-26T04:40:40.431Z,941.8
2017-02-26T04:41:48.514Z,941.8
2017-02-26T04:42:56.617Z,941.8
2017-02-26T04:44:04.789Z,941.8
2017-02-26T04:45:12.903Z,941.8
2017-02-26T04:46:20.879Z,941.8
2017-02-26T04:47:28.968Z,941.8
2017-02-26T04:48:37.063Z,941.8
2017-02-26T04:49:45.150Z,941.9
2017-02-26T04:50:53.290Z,941.9
2017-02-26T04:52:01.328Z,941.9
2017-02-26T04:53:09.471Z,941.9
2017-02-26T04:54:17.499Z,941.9
2017-02-26T04:55:25.659Z,941.9
2017-02-26T04:56:33.731Z,941.9
2017-02-26T04:57:41.761Z,941.9
2017-02-26T04:58:49.848Z,941.9
2017-02-26T04:59:58.137Z,941.9
2017-02-26T05:01:06.029Z,941.9
2017-02-26T05:02:14.238Z,941.9
2017-02-26T05:03:22.207Z,941.9
2017-02-26T05:04:30.294Z,941.9
2017-02-26T05:05:38.433Z,941.9
2017-02-26T05:06:46.516Z,941.9
2017-02-26T05:07:54.611Z,941.8
2017-02-26T05:09:02.700Z,941.8
2017-02-26T05:10:10.807Z,941.8
2017-02-26T05:11:18.979Z,941.8
2017-02-26T05:12:26.911Z,941.8
2017-02-26T05:13:35.120Z,941.8
2017-02-26T05:14:43.096Z,941.8
2017-02-26T05:15:51.179Z,941.7
2017-02-26T05:16:59.270Z,941.8
2017-02-26T05:18:07.352Z,941.8
2017-02-26T05:19:15.566Z,941.7
2017-02-26T05:20:23.533Z,941.7
2017-02-26T05:21:31.749Z,941.6
2017-02-26T05:22:39.722Z,941.6
2017-02-26T05:23:47.808Z,941.7
2017-02-26T05:24:55.952Z,941.6
2017-02-26T05:26:03.984Z,941.7
2017-02-26T05:27:12.195Z,941.7
2017-02-26T05:28:20.163Z,941.6
2017-02-26T05:29:28.252Z,941.7
2017-02-26T05:30:36.395Z,941.7
2017-02-26T05:31:44.431Z,941.7
2017-02-26T05:32:52.564Z,941.7
2017-02-26T05:34:00.599Z,941.7
2017-02-26T05:35:08.692Z,941.7
2017-02-26T05:36:16.898Z,941.7
2017-02-26T05:37:24.944Z,941.7
2017-02-26T05:38:32.950Z,941.7
2017-02-26T05:39:41.039Z,941.6
2017-02-26T05:40:49.179Z,941.7
2017-02-26T05:41:57.263Z,941.6
2017-02-26T05:43:05.297Z,941.7
2017-02-26T05:44:13.382Z,941.7
2017-02-26T05:45:21.469Z,941.7
2017-02-26T05:46:29.568Z,941.7
2017-02-26T05:47:38.011Z,941.7
2017-02-26T05:48:45.824Z,941.7
2017-02-26T05:49:53.819Z,941.7
2017-02-26T05:51:01.909Z,941.7
2017-02-26T05:52:10.000Z,941.7
2017-02-26T05:53:18.136Z,941.7
2017-02-26T05:54:26.173Z,941.7
2017-02-26T05:55:34.264Z,941.6
2017-02-26T05:56:42.470Z,941.6
2017-02-26T05:57:50.436Z,941.6
2017-02-26T05:58:58.587Z,941.6
2017-02-26T06:00:06.632Z,941.6
2017-02-26T06:01:14.702Z,941.6
2017-02-26T06:02:22.789Z,941.6
2017-02-26T06:03:30.882Z,941.6
2017-02-26T06:04:39.022Z,941.5
2017-02-26T06:05:47.049Z,941.6
2017-02-26T06:06:55.139Z,941.6
2017-02-26T06:08:03.220Z,941.6
2017-02-26T06:09:11.306Z,941.7
2017-02-26T06:10:19.517Z,941.6
2017-02-26T06:11:27.488Z,941.7
2017-02-26T06:12:35.629Z,941.6
2017-02-26T06:13:43.770Z,941.6
2017-02-26T06:14:51.837Z,941.6
2017-02-26T06:15:59.956Z,941.7
2017-02-26T06:17:07.918Z,941.8
2017-02-26T06:18:16.007Z,941.7
2017-02-26T06:19:24.091Z,941.7
2017-02-26T06:20:32.178Z,941.7
2017-02-26T06:21:40.385Z,941.7
2017-02-26T06:22:48.349Z,941.7
2017-02-26T06:23:56.438Z,941.7
2017-02-26T06:25:04.670Z,941.6
2017-02-26T06:26:12.611Z,941.7
2017-02-26T06:27:20.754Z,941.7
2017-02-26T06:28:28.903Z,941.7
2017-02-26T06:29:36.875Z,941.7
2017-02-26T06:30:44.964Z,941.7
2017-02-26T06:31:53.054Z,941.7
2017-02-26T06:33:01.197Z,941.8
2017-02-26T06:34:09.234Z,941.8
2017-02-26T06:35:17.326Z,941.8
2017-02-26T06:36:25.494Z,941.8
2017-02-26T06:37:33.504Z,941.8
2017-02-26T06:38:41.710Z,941.8
2017-02-26T06:39:49.672Z,941.9
2017-02-26T06:40:57.765Z,941.8
2017-02-26T06:42:05.858Z,941.8
2017-02-26T06:43:13.946Z,941.8
2017-02-26T06:44:22.148Z,941.8
2017-02-26T06:45:30.118Z,941.8
2017-02-26T06:46:38.219Z,941.8
2017-02-26T06:47:46.305Z,941.8
2017-02-26T06:48:54.379Z,941.8
2017-02-26T06:50:02.593Z,941.8
2017-02-26T06:51:10.740Z,941.8
2017-02-26T06:52:18.832Z,941.8
2017-02-26T06:53:26.734Z,941.9
2017-02-26T06:54:34.826Z,941.9
2017-02-26T06:55:42.970Z,941.9
2017-02-26T06:56:50.999Z,942.0
2017-02-26T06:57:59.328Z,942.0
2017-02-26T06:59:07.180Z,942.1
2017-02-26T07:00:15.319Z,942.1
2017-02-26T07:01:23.411Z,942.1
2017-02-26T07:02:31.470Z,942.1
2017-02-26T07:03:39.529Z,942.0
2017-02-26T07:04:47.612Z,942.1
2017-02-26T07:05:55.701Z,942.1
2017-02-26T07:07:04.067Z,942.2
2017-02-26T07:08:11.981Z,942.2
2017-02-26T07:09:20.323Z,942.2
2017-02-26T07:10:28.408Z,942.2
2017-02-26T07:11:36.142Z,942.2
2017-02-26T07:12:44.350Z,942.1
2017-02-26T07:13:52.326Z,942.1
2017-02-26T07:15:00.404Z,942.2
2017-02-26T07:16:08.543Z,942.2
2017-02-26T07:17:16.645Z,942.2
2017-02-26T07:18:24.815Z,942.2
2017-02-26T07:19:32.757Z,942.2
2017-02-26T07:20:40.840Z,942.2
2017-02-26T07:21:48.971Z,942.2
2017-02-26T07:22:57.027Z,942.2
2017-02-26T07:24:05.163Z,942.2
2017-02-26T07:25:13.199Z,942.2
2017-02-26T07:26:21.294Z,942.2
2017-02-26T07:27:29.383Z,942.2
2017-02-26T07:28:37.583Z,942.3
2017-02-26T07:29:45.685Z,942.2
2017-02-26T07:30:53.669Z,942.3
2017-02-26T07:32:01.802Z,942.3
2017-02-26T07:33:09.902Z,942.2
2017-02-26T07:34:18.238Z,942.3
2017-02-26T07:35:26.131Z,942.3
2017-02-26T07:36:34.105Z,942.3
2017-02-26T07:37:42.188Z,942.3
2017-02-26T07:38:50.361Z,942.2
2017-02-26T07:39:58.371Z,942.2
2017-02-26T07:41:07.623Z,942.2
2017-02-26T07:42:14.552Z,942.2
2017-02-26T07:43:22.631Z,942.2
2017-02-26T07:44:31.105Z,942.2
2017-02-26T07:45:38.813Z,942.3
2017-02-26T07:46:46.952Z,942.3
2017-02-26T07:47:55.107Z,942.3
2017-02-26T07:49:03.072Z,942.3
2017-02-26T07:50:11.160Z,942.3
2017-02-26T07:51:19.254Z,942.3
2017-02-26T07:52:27.389Z,942.3
2017-02-26T07:53:35.428Z,942.3
2017-02-26T07:54:43.587Z,942.3
2017-02-26T07:55:52.000Z,942.4
2017-02-26T07:56:59.693Z,942.3
2017-02-26T07:58:07.835Z,942.4
2017-02-26T07:59:15.861Z,942.3
2017-02-26T08:00:23.956Z,942.3
2017-02-26T08:01:32.047Z,942.3
2017-02-26T08:02:40.133Z,942.3
2017-02-26T08:03:48.345Z,942.3
2017-02-26T08:04:56.316Z,942.4
2017-02-26T08:06:04.534Z,942.4
2017-02-26T08:07:12.494Z,942.4
2017-02-26T08:08:20.584Z,942.4
2017-02-26T08:09:28.789Z,942.4
2017-02-26T08:10:36.903Z,942.4
2017-02-26T08:11:44.841Z,942.4
2017-02-26T08:12:52.936Z,942.3
2017-02-26T08:14:01.026Z,942.3
2017-02-26T08:15:09.232Z,942.3
2017-02-26T08:16:17.205Z,942.3
2017-02-26T08:17:25.293Z,942.4
2017-02-26T08:18:33.383Z,942.4
2017-02-26T08:19:41.528Z,942.5
2017-02-26T08:20:49.734Z,942.5
2017-02-26T08:21:57.692Z,942.5
2017-02-26T08:23:05.741Z,942.5
2017-02-26T08:24:13.829Z,942.5
2017-02-26T08:25:21.989Z,942.5
2017-02-26T08:26:30.270Z,942.5
2017-02-26T08:27:38.103Z,942.5
2017-02-26T08:28:46.877Z,942.5
2017-02-26T08:29:54.285Z,942.5
2017-02-26T08:31:02.366Z,942.5
2017-02-26T08:32:10.577Z,942.5
2017-02-26T08:33:18.550Z,942.6
2017-02-26T08:34:26.631Z,942.6
2017-02-26T08:35:34.783Z,942.6
2017-02-26T08:36:42.889Z,942.7
2017-02-26T08:37:51.021Z,942.7
2017-02-26T08:38:58.991Z,942.7
2017-02-26T08:40:07.081Z,942.7
2017-02-26T08:41:15.303Z,942.8
2017-02-26T08:42:23.256Z,942.7
2017-02-26T08:43:31.474Z,942.8
2017-02-26T08:44:39.437Z,942.7
2017-02-26T08:45:47.568Z,942.7
2017-02-26T08:46:55.617Z,942.7
2017-02-26T08:48:03.707Z,942.7
2017-02-26T08:49:11.920Z,942.6
2017-02-26T08:50:19.890Z,942.5
2017-02-26T08:51:28.033Z,942.6
2017-02-26T08:52:36.180Z,942.6
2017-02-26T08:53:44.168Z,942.6
2017-02-26T08:54:52.373Z,942.5
2017-02-26T08:56:00.345Z,942.5
2017-02-26T08:57:08.432Z,942.4
2017-02-26T08:58:16.520Z,942.4
2017-02-26T08:59:24.606Z,942.4
2017-02-26T09:00:32.816Z,942.4
2017-02-26T09:01:40.779Z,942.4
2017-02-26T09:02:48.922Z,942.4
2017-02-26T09:03:57.003Z,942.4
2017-02-26T09:05:05.053Z,942.4
2017-02-26T09:06:13.195Z,942.4
2017-02-26T09:07:21.288Z,942.4
2017-02-26T09:08:29.324Z,942.4
2017-02-26T09:09:37.404Z,942.4
2017-02-26T09:10:45.500Z,942.4
2017-02-26T09:11:53.715Z,942.4
2017-02-26T09:13:01.680Z,942.3
2017-02-26T09:14:09.822Z,942.3
2017-02-26T09:15:17.854Z,942.3
2017-02-26T09:16:25.940Z,942.4
2017-02-26T09:17:34.088Z,942.4
2017-02-26T09:18:42.234Z,942.5
2017-02-26T09:19:50.213Z,942.5
2017-02-26T09:20:58.298Z,942.5
2017-02-26T09:22:06.386Z,942.5
2017-02-26T09:23:14.774Z,942.5
2017-02-26T09:24:22.567Z,942.5
2017-02-26T09:25:30.657Z,942.5
2017-02-26T09:26:38.743Z,942.5
2017-02-26T09:27:46.835Z,942.5
2017-02-26T09:28:55.051Z,942.6
2017-02-26T09:30:03.011Z,942.5
2017-02-26T09:31:11.102Z,942.5
2017-02-26T09:32:19.187Z,942.4
2017-02-26T09:33:27.280Z,942.4
2017-02-26T09:34:35.490Z,942.4
2017-02-26T09:35:43.447Z,942.4
2017-02-26T09:36:51.538Z,942.4
2017-02-26T09:37:59.623Z,942.4
2017-02-26T09:39:07.966Z,942.3
2017-02-26T09:40:15.870Z,942.4
2017-02-26T09:41:23.892Z,942.4
2017-02-26T09:42:31.986Z,942.4
2017-02-26T09:43:40.079Z,942.4
2017-02-26T09:44:48.171Z,942.4
2017-02-26T09:45:56.318Z,942.4
2017-02-26T09:47:04.352Z,942.4
2017-02-26T09:48:12.438Z,942.4
2017-02-26T09:49:20.534Z,942.4
2017-02-26T09:50:28.622Z,942.4
2017-02-26T09:51:36.832Z,942.3
2017-02-26T09:52:44.807Z,942.3
2017-02-26T09:53:52.892Z,942.3
2017-02-26T09:55:01.045Z,942.4
2017-02-26T09:56:09.072Z,942.4
2017-02-26T09:57:17.280Z,942.4
2017-02-26T09:58:25.387Z,942.4
2017-02-26T09:59:33.439Z,942.4
2017-02-26T10:00:41.429Z,942.4
2017-02-26T10:01:49.518Z,942.5
2017-02-26T10:02:57.921Z,942.4
2017-02-26T10:04:05.866Z,942.4
2017-02-26T10:05:13.790Z,942.4
2017-02-26T10:06:21.882Z,942.3
2017-02-26T10:07:29.970Z,942.3
2017-02-26T10:08:38.111Z,942.3
2017-02-26T10:09:46.144Z,942.3
2017-02-26T10:10:54.299Z,942.3
2017-02-26T10:12:02.336Z,942.3
2017-02-26T10:13:10.416Z,942.3
2017-02-26T10:14:18.652Z,942.3
2017-02-26T10:15:26.602Z,942.3
2017-02-26T10:16:34.690Z,942.4
2017-02-26T10:17:42.776Z,942.3
2017-02-26T10:18:50.865Z,942.3
2017-02-26T10:19:59.076Z,942.3
2017-02-26T10:21:07.047Z,942.2
2017-02-26T10:22:15.140Z,942.2
2017-02-26T10:23:23.228Z,942.2
2017-02-26T10:24:31.317Z,942.1
2017-02-26T10:25:39.483Z,942.2
2017-02-26T10:26:47.550Z,942.2
2017-02-26T10:27:55.584Z,942.2
2017-02-26T10:29:03.666Z,942.2
2017-02-26T10:30:11.753Z,942.3
2017-02-26T10:31:19.978Z,942.3
2017-02-26T10:32:27.933Z,942.3
2017-02-26T10:33:36.021Z,942.3
2017-02-26T10:34:44.126Z,942.3
2017-02-26T10:35:52.222Z,942.3
2017-02-26T10:37:00.419Z,942.3
2017-02-26T10:38:08.389Z,942.3
2017-02-26T10:39:16.479Z,942.2
2017-02-26T10:40:24.715Z,942.2
2017-02-26T10:41:32.803Z,942.2
2017-02-26T10:42:40.864Z,942.1
2017-02-26T10:43:48.834Z,942.1
2017-02-26T10:44:56.919Z,942.1
2017-02-26T10:46:05.013Z,942.1
2017-02-26T10:47:13.097Z,942.0
2017-02-26T10:48:21.307Z,942.0
2017-02-26T10:49:29.275Z,942.0
2017-02-26T10:50:37.368Z,942.0
2017-02-26T10:51:45.564Z,942.0
2017-02-26T10:52:53.543Z,942.1
2017-02-26T10:54:01.696Z,942.1
2017-02-26T10:55:09.729Z,942.0
2017-02-26T10:56:17.812Z,942.1
2017-02-26T10:57:25.906Z,942.0
2017-02-26T10:58:34.127Z,942.1
2017-02-26T10:59:42.160Z,942.0
2017-02-26T11:00:50.198Z,942.0
2017-02-26T11:01:58.336Z,942.0
2017-02-26T11:03:06.408Z,941.9
2017-02-26T11:04:14.453Z,941.9
2017-02-26T11:05:22.661Z,941.9
2017-02-26T11:06:30.822Z,941.9
2017-02-26T11:07:38.894Z,942.0
2017-02-26T11:08:46.806Z,941.9
2017-02-26T11:09:54.898Z,941.9
2017-02-26T11:11:03.106Z,941.9
2017-02-26T11:12:11.075Z,941.9
2017-02-26T11:13:19.167Z,941.9
2017-02-26T11:14:27.318Z,941.9
2017-02-26T11:15:35.350Z,941.9
2017-02-26T11:16:43.552Z,941.9
2017-02-26T11:17:51.612Z,941.9
2017-02-26T11:18:59.610Z,941.8
2017-02-26T11:20:07.696Z,941.9
2017-02-26T11:21:15.796Z,941.8
2017-02-26T11:22:24.091Z,941.8
2017-02-26T11:23:31.963Z,941.8
2017-02-26T11:24:40.051Z,941.8
2017-02-26T11:25:48.147Z,941.8
2017-02-26T11:26:56.227Z,941.8
2017-02-26T11:28:04.400Z,941.8
2017-02-26T11:29:12.421Z,941.8
2017-02-26T11:30:20.615Z,941.8
2017-02-26T11:31:28.585Z,941.8
2017-02-26T11:32:36.677Z,941.8
2017-02-26T11:33:45.003Z,941.9
2017-02-26T11:34:52.861Z,941.9
2017-02-26T11:36:00.944Z,941.8
2017-02-26T11:37:09.038Z,941.9
2017-02-26T11:38:17.121Z,941.9
2017-02-26T11:39:25.343Z,941.9
2017-02-26T11:40:33.306Z,941.9
2017-02-26T11:41:41.397Z,941.8
2017-02-26T11:42:49.485Z,941.8
2017-02-26T11:43:57.741Z,941.8
2017-02-26T11:45:05.849Z,941.8
2017-02-26T11:46:13.803Z,941.7
2017-02-26T11:47:21.831Z,941.7
2017-02-26T11:48:29.923Z,941.6
2017-02-26T11:49:38.020Z,941.6
2017-02-26T11:50:46.232Z,941.6
2017-02-26T11:51:54.193Z,941.5
2017-02-26T11:53:02.285Z,941.5
2017-02-26T11:54:10.376Z,941.4
2017-02-26T11:55:18.588Z,941.4
2017-02-26T11:56:26.669Z,941.4
2017-02-26T11:57:34.643Z,941.4
2017-02-26T11:58:42.730Z,941.4
2017-02-26T11:59:50.821Z,941.4
2017-02-26T12:00:58.913Z,941.4
2017-02-26T12:02:07.120Z,941.4
2017-02-26T12:03:15.088Z,941.3
2017-02-26T12:04:23.176Z,941.3
2017-02-26T12:05:31.356Z,941.3
2017-02-26T12:06:39.421Z,941.4
2017-02-26T12:07:47.553Z,941.3
2017-02-26T12:08:55.523Z,941.3
2017-02-26T12:10:03.830Z,941.3
2017-02-26T12:11:11.890Z,941.3
2017-02-26T12:12:19.807Z,941.4
2017-02-26T12:13:28.013Z,941.4
2017-02-26T12:14:35.983Z,941.3
2017-02-26T12:15:44.083Z,941.4
2017-02-26T12:16:52.163Z,941.3
2017-02-26T12:18:00.461Z,941.3
2017-02-26T12:19:08.459Z,941.4
2017-02-26T12:20:16.430Z,941.4
2017-02-26T12:21:24.622Z,941.3
2017-02-26T12:22:32.607Z,941.3
2017-02-26T12:23:40.698Z,941.3
2017-02-26T12:24:48.907Z,941.3
2017-02-26T12:25:56.881Z,941.3
2017-02-26T12:27:04.971Z,941.2
2017-02-26T12:28:13.060Z,941.2
2017-02-26T12:29:21.187Z,941.2
2017-02-26T12:30:29.357Z,941.3
2017-02-26T12:31:37.355Z,941.3
2017-02-26T12:32:45.429Z,941.3
2017-02-26T12:33:53.556Z,941.3
2017-02-26T12:35:01.592Z,941.2
2017-02-26T12:36:09.810Z,941.2
2017-02-26T12:37:17.899Z,941.2
2017-02-26T12:38:25.867Z,941.1
2017-02-26T12:39:33.955Z,941.1
2017-02-26T12:40:42.084Z,941.0
2017-02-26T12:41:50.261Z,941.1
2017-02-26T12:42:58.222Z,941.1
2017-02-26T12:44:06.314Z,941.0
2017-02-26T12:45:14.399Z,941.0
2017-02-26T12:46:22.487Z,941.1
2017-02-26T12:47:30.702Z,941.1
2017-02-26T12:48:38.666Z,941.0
2017-02-26T12:49:46.813Z,941.0
2017-02-26T12:50:54.838Z,941.0
2017-02-26T12:52:03.028Z,941.0
2017-02-26T12:53:11.266Z,941.0
2017-02-26T12:54:19.110Z,941.0
2017-02-26T12:55:27.190Z,941.0
2017-02-26T12:56:35.282Z,940.9
2017-02-26T12:57:43.365Z,940.9
2017-02-26T12:58:51.597Z,940.9
2017-02-26T12:59:59.556Z,940.9
2017-02-26T13:01:07.649Z,940.9
2017-02-26T13:02:15.737Z,940.9
2017-02-26T13:03:23.820Z,940.9
2017-02-26T13:04:32.031Z,940.9
2017-02-26T13:05:40.055Z,940.8
2017-02-26T13:06:48.083Z,940.8
2017-02-26T13:07:56.175Z,940.8
2017-02-26T13:09:04.334Z,940.8
2017-02-26T13:10:12.524Z,940.8
2017-02-26T13:11:20.440Z,940.8
2017-02-26T13:12:28.529Z,940.8
2017-02-26T13:13:36.618Z,940.8
2017-02-26T13:14:44.893Z,940.8
2017-02-26T13:15:52.918Z,940.8
2017-02-26T13:17:00.885Z,940.8
2017-02-26T13:18:08.979Z,940.8
2017-02-26T13:19:17.074Z,940.9
2017-02-26T13:20:25.210Z,940.9
2017-02-26T13:21:33.358Z,940.9
2017-02-26T13:22:41.334Z,940.9
2017-02-26T13:23:49.427Z,940.9
2017-02-26T13:24:57.686Z,940.8
2017-02-26T13:26:05.605Z,940.8
2017-02-26T13:27:13.823Z,940.8
2017-02-26T13:28:21.794Z,940.8
2017-02-26T13:29:29.884Z,940.8
2017-02-26T13:30:37.974Z,940.9
2017-02-26T13:31:46.063Z,940.9
2017-02-26T13:32:54.269Z,940.9
2017-02-26T13:34:02.253Z,941.0
2017-02-26T13:35:10.485Z,940.9
2017-02-26T13:36:18.561Z,941.0
2017-02-26T13:37:26.641Z,940.9
2017-02-26T13:38:34.663Z,940.9
2017-02-26T13:39:42.884Z,940.9
2017-02-26T13:40:50.792Z,940.9
2017-02-26T13:41:58.880Z,940.9
2017-02-26T13:43:06.975Z,940.9
2017-02-26T13:44:15.183Z,940.9
2017-02-26T13:45:23.147Z,940.8
2017-02-26T13:46:31.318Z,940.8
2017-02-26T13:47:39.330Z,940.8
2017-02-26T13:48:47.425Z,940.8
2017-02-26T13:49:55.637Z,940.9
2017-02-26T13:51:03.794Z,940.8
2017-02-26T13:52:11.701Z,940.8
2017-02-26T13:53:19.853Z,940.8
2017-02-26T13:54:27.881Z,940.8
2017-02-26T13:55:36.095Z,940.7
2017-02-26T13:56:44.220Z,940.7
2017-02-26T13:57:52.151Z,940.6
2017-02-26T13:59:00.246Z,940.6
2017-02-26T14:00:08.339Z,940.6
2017-02-26T14:01:16.582Z,940.6
2017-02-26T14:02:24.536Z,940.5
2017-02-26T14:03:32.899Z,940.5
2017-02-26T14:04:40.704Z,940.4
2017-02-26T14:05:48.796Z,940.4
2017-02-26T14:06:56.986Z,940.4
2017-02-26T14:08:04.977Z,940.3
2017-02-26T14:09:13.183Z,940.3
2017-02-26T14:10:21.151Z,940.3
2017-02-26T14:11:29.241Z,940.3
2017-02-26T14:12:37.392Z,940.2
2017-02-26T14:13:45.422Z,940.2
2017-02-26T14:14:53.516Z,940.2
2017-02-26T14:16:01.604Z,940.3
2017-02-26T14:17:09.704Z,940.3
2017-02-26T14:18:17.916Z,940.2
2017-02-26T14:19:25.877Z,940.2
2017-02-26T14:20:33.968Z,940.2
2017-02-26T14:21:42.171Z,940.3
2017-02-26T14:22:50.226Z,940.3
2017-02-26T14:23:58.356Z,940.3
2017-02-26T14:25:06.378Z,940.3
2017-02-26T14:26:14.591Z,940.4
2017-02-26T14:27:22.642Z,940.4
2017-02-26T14:28:30.588Z,940.3
2017-02-26T14:29:38.736Z,940.3
2017-02-26T14:30:46.776Z,940.3
2017-02-26T14:31:54.944Z,940.3
2017-02-26T14:33:02.954Z,940.2
2017-02-26T14:34:11.046Z,940.1
2017-02-26T14:35:19.265Z,940.1
2017-02-26T14:36:27.235Z,940.1